Weather at Charleston Air Force Base-International Airport

Public forecast

Using degrees Fahrenheit for public forecast. Weather courtesy of forecast.io.

Current aviation weather report (METAR) for Charleston Air Force Base-International Airport

Retrieved 2020/09/29 19:56 UTC (25 minutes ago):

KCHS 291956Z 19011KT 10SM SCT030 SCT035 BKN150 29/22 A2970 RMK AO2 SLP056 T02940222

Aviation forecast (TAF) for Charleston Air Force Base-International Airport

Retrieved 2020/09/29 18:22 UTC (2 hours ago):

TAF KCHS 291720Z 2918/3018 21008KT P6SM VCTS SCT025CB BKN040 FM292100 21009KT 5SM -SHRA VCTS SCT030CB BKN040 TEMPO 2922/3001 VRB20G30KT 1 1/2SM TSRA BR SCT015 BKN030CB FM300200 30011G17KT 5SM -RA BR SCT010 OVC015 FM300600 31008KT P6SM FEW015 SCT080